createdAt,value
2018-02-14T00:01:35.315Z,0.91
2018-02-14T00:04:04.170Z,0.84
2018-02-14T00:06:32.711Z,0.81
2018-02-14T00:09:01.449Z,0.78
2018-02-14T00:11:30.196Z,0.80
2018-02-14T00:13:58.708Z,0.81
2018-02-14T00:16:27.728Z,0.80
2018-02-14T00:18:56.521Z,0.83
2018-02-14T00:21:24.937Z,0.83
2018-02-14T00:23:53.365Z,0.78
2018-02-14T00:26:22.131Z,0.71
2018-02-14T00:28:50.560Z,0.70
2018-02-14T00:31:18.986Z,0.63
2018-02-14T00:33:48.338Z,0.71
2018-02-14T00:36:16.763Z,0.72
2018-02-14T00:38:45.193Z,0.73
2018-02-14T00:41:13.837Z,0.74
2018-02-14T00:43:42.287Z,0.72
2018-02-14T00:46:10.730Z,0.69
2018-02-14T00:48:39.722Z,0.69
2018-02-14T00:51:08.193Z,0.68
2018-02-14T00:53:37.217Z,0.69
2018-02-14T00:56:06.763Z,0.69
2018-02-14T00:58:35.245Z,0.70
2018-02-14T01:01:03.793Z,0.70
2018-02-14T01:03:32.480Z,0.62
2018-02-14T01:06:00.989Z,0.68
2018-02-14T01:08:29.828Z,0.68
2018-02-14T01:10:58.461Z,0.67
2018-02-14T01:13:26.872Z,0.66
2018-02-14T01:15:55.265Z,0.62
2018-02-14T01:18:24.075Z,0.59
2018-02-14T01:20:52.536Z,0.63
2018-02-14T01:23:20.954Z,0.61
2018-02-14T01:25:50.261Z,0.65
2018-02-14T01:28:18.697Z,0.55
2018-02-14T01:30:47.113Z,0.60
2018-02-14T01:33:16.040Z,0.57
2018-02-14T01:35:44.462Z,0.52
2018-02-14T01:38:12.881Z,0.56
2018-02-14T01:40:48.256Z,0.49
2018-02-14T01:43:16.688Z,0.52
2018-02-14T01:45:45.113Z,0.58
2018-02-14T01:48:13.578Z,0.61
2018-02-14T01:50:41.993Z,0.61
2018-02-14T01:53:10.442Z,0.58
2018-02-14T01:55:39.255Z,0.57
2018-02-14T01:58:07.677Z,0.56
2018-02-14T02:00:36.307Z,0.50
2018-02-14T02:03:05.694Z,0.46
2018-02-14T02:05:34.145Z,0.37
2018-02-14T02:08:02.628Z,0.32
2018-02-14T02:10:31.555Z,0.33
2018-02-14T02:13:00.036Z,0.25
2018-02-14T02:15:28.797Z,0.31
2018-02-14T02:17:57.361Z,0.29
2018-02-14T02:20:25.805Z,0.22
2018-02-14T02:22:54.294Z,0.20
2018-02-14T02:25:22.816Z,0.20
2018-02-14T02:27:51.507Z,0.17
2018-02-14T02:30:20.121Z,0.17
2018-02-14T02:32:49.343Z,0.16
2018-02-14T02:35:18.760Z,0.20
2018-02-14T02:37:49.051Z,0.26
2018-02-14T02:40:29.218Z,0.23
2018-02-14T02:42:57.664Z,0.21
2018-02-14T02:45:30.068Z,0.19
2018-02-14T02:47:58.491Z,0.21
2018-02-14T02:50:26.930Z,0.17
2018-02-14T02:52:55.750Z,0.15
2018-02-14T02:55:24.166Z,0.14
2018-02-14T02:57:52.599Z,0.13
2018-02-14T03:00:21.059Z,0.09
2018-02-14T03:02:49.501Z,0.01
2018-02-14T03:05:17.937Z,0.07
2018-02-14T03:07:46.802Z,0.02
2018-02-14T03:10:15.251Z,0.05
2018-02-14T03:12:43.696Z,0.08
2018-02-14T03:15:12.184Z,0.05
2018-02-14T03:17:40.614Z,0.07
2018-02-14T03:20:09.112Z,0.04
2018-02-14T03:22:39.109Z,0.02
2018-02-14T03:25:07.522Z,0.05
2018-02-14T03:27:36.001Z,0.02
2018-02-14T03:30:04.632Z,0.04
2018-02-14T03:32:33.168Z,0.05
2018-02-14T03:35:01.644Z,0.13
2018-02-14T03:37:30.405Z,0.11
2018-02-14T03:39:58.858Z,0.18
2018-02-14T03:42:27.404Z,0.16
2018-02-14T03:44:56.777Z,0.10
2018-02-14T03:47:25.211Z,0.10
2018-02-14T03:49:53.663Z,0.10
2018-02-14T03:52:22.184Z,0.10
2018-02-14T03:54:50.754Z,0.09
2018-02-14T03:57:19.210Z,0.12
2018-02-14T03:59:47.883Z,0.08
2018-02-14T04:02:16.364Z,0.04
2018-02-14T04:04:44.808Z,0.06
2018-02-14T04:07:13.397Z,0.02
2018-02-14T04:09:41.841Z,0.06
2018-02-14T04:12:10.426Z,-0.02
2018-02-14T04:14:39.637Z,-0.05
2018-02-14T04:17:08.121Z,-0.07
2018-02-14T04:19:36.569Z,-0.13
2018-02-14T04:22:05.467Z,-0.09
2018-02-14T04:24:34.130Z,-0.08
2018-02-14T04:27:02.885Z,-0.10
2018-02-14T04:29:32.320Z,-0.11
2018-02-14T04:32:00.912Z,-0.14
2018-02-14T04:34:30.242Z,-0.12
2018-02-14T04:36:58.768Z,-0.17
2018-02-14T04:39:27.407Z,-0.14
2018-02-14T04:41:55.989Z,-0.19
2018-02-14T04:44:24.874Z,-0.11
2018-02-14T04:46:53.320Z,-0.17
2018-02-14T04:49:21.831Z,-0.15
2018-02-14T04:51:50.466Z,-0.14
2018-02-14T04:54:18.898Z,-0.12
2018-02-14T04:56:51.687Z,-0.12
2018-02-14T04:59:21.473Z,-0.11
2018-02-14T05:02:06.728Z,-0.17
2018-02-14T05:04:35.257Z,-0.20
2018-02-14T05:07:03.746Z,-0.22
2018-02-14T05:09:32.189Z,-0.25
2018-02-14T05:12:01.828Z,-0.26
2018-02-14T05:14:30.300Z,-0.28
2018-02-14T05:16:58.727Z,-0.28
2018-02-14T05:19:27.376Z,-0.31
2018-02-14T05:21:55.865Z,-0.30
2018-02-14T05:24:24.295Z,-0.26
2018-02-14T05:26:52.948Z,-0.25
2018-02-14T05:29:21.375Z,-0.27
2018-02-14T05:31:50.365Z,-0.25
2018-02-14T05:34:19.007Z,-0.29
2018-02-14T05:36:47.438Z,-0.26
2018-02-14T05:39:15.868Z,-0.33
2018-02-14T05:41:44.593Z,-0.37
2018-02-14T05:44:13.028Z,-0.34
2018-02-14T05:46:41.466Z,-0.36
2018-02-14T05:49:10.068Z,-0.34
2018-02-14T05:51:38.583Z,-0.36
2018-02-14T05:54:07.109Z,-0.37
2018-02-14T05:56:35.639Z,-0.36
2018-02-14T05:59:04.114Z,-0.37
2018-02-14T06:01:32.609Z,-0.37
2018-02-14T06:04:01.535Z,-0.32
2018-02-14T06:06:30.598Z,-0.43
2018-02-14T06:08:59.166Z,-0.44
2018-02-14T06:11:27.743Z,-0.40
2018-02-14T06:13:56.197Z,-0.39
2018-02-14T06:16:25.603Z,-0.41
2018-02-14T06:18:54.210Z,-0.36
2018-02-14T06:21:22.646Z,-0.40
2018-02-14T06:23:51.104Z,-0.34
2018-02-14T06:26:19.600Z,-0.42
2018-02-14T06:28:48.027Z,-0.38
2018-02-14T06:31:16.476Z,-0.37
2018-02-14T06:33:44.941Z,-0.35
2018-02-14T06:36:14.154Z,-0.34
2018-02-14T06:38:42.602Z,-0.41
2018-02-14T06:41:11.076Z,-0.39
2018-02-14T06:43:39.633Z,-0.34
2018-02-14T06:46:08.074Z,-0.36
2018-02-14T06:48:36.550Z,-0.38
2018-02-14T06:51:04.978Z,-0.36
2018-02-14T06:53:34.466Z,-0.35
2018-02-14T06:56:03.191Z,-0.38
2018-02-14T06:58:31.877Z,-0.40
2018-02-14T07:01:00.530Z,-0.37
2018-02-14T07:03:29.173Z,-0.35
2018-02-14T07:05:57.746Z,-0.32
2018-02-14T07:08:26.172Z,-0.36
2018-02-14T07:10:54.815Z,-0.27
2018-02-14T07:13:25.605Z,-0.18
2018-02-14T07:15:54.093Z,-0.15
2018-02-14T07:18:22.989Z,-0.13
2018-02-14T07:20:51.445Z,-0.10
2018-02-14T07:23:25.494Z,-0.01
2018-02-14T07:25:53.975Z,0.09
2018-02-14T07:28:22.409Z,0.27
2018-02-14T07:30:52.084Z,0.22
2018-02-14T07:33:20.507Z,0.23
2018-02-14T07:35:48.930Z,0.28
2018-02-14T07:38:17.432Z,0.20
2018-02-14T07:40:45.907Z,0.24
2018-02-14T07:43:15.273Z,0.27
2018-02-14T07:45:43.848Z,0.25
2018-02-14T07:48:12.700Z,0.24
2018-02-14T07:50:41.153Z,0.29
2018-02-14T07:53:09.643Z,0.38
2018-02-14T07:55:38.468Z,0.42
2018-02-14T07:58:07.766Z,0.41
2018-02-14T08:00:36.437Z,0.47
2018-02-14T08:03:05.624Z,0.49
2018-02-14T08:05:34.118Z,0.47
2018-02-14T08:08:02.705Z,0.54
2018-02-14T08:10:32.825Z,0.43
2018-02-14T08:13:01.915Z,0.44
2018-02-14T08:15:31.622Z,0.49
2018-02-14T08:18:00.126Z,0.60
2018-02-14T08:20:28.889Z,0.70
2018-02-14T08:22:57.520Z,0.70
2018-02-14T08:25:25.949Z,0.68
2018-02-14T08:27:55.252Z,0.71
2018-02-14T08:30:23.868Z,0.69
2018-02-14T08:32:52.259Z,0.61
2018-02-14T08:35:20.681Z,0.72
2018-02-14T08:37:49.276Z,0.72
2018-02-14T08:40:17.757Z,0.65
2018-02-14T08:42:46.165Z,0.85
2018-02-14T08:45:15.129Z,1.29
2018-02-14T08:47:43.565Z,1.80
2018-02-14T08:50:12.301Z,2.23
2018-02-14T08:52:41.240Z,2.79
2018-02-14T08:55:09.778Z,3.47
2018-02-14T08:57:38.359Z,4.20
2018-02-14T09:00:06.857Z,4.38
2018-02-14T09:02:35.445Z,4.72
2018-02-14T09:05:04.123Z,5.20
2018-02-14T09:07:33.010Z,5.51
2018-02-14T09:10:01.821Z,6.08
2018-02-14T09:12:30.279Z,6.22
2018-02-14T09:14:58.863Z,6.32
2018-02-14T09:17:27.323Z,6.69
2018-02-14T09:19:55.756Z,6.49
2018-02-14T09:22:25.149Z,6.61
2018-02-14T09:24:53.620Z,6.24
2018-02-14T09:27:22.061Z,6.50
2018-02-14T09:29:50.806Z,6.37
2018-02-14T09:32:19.261Z,6.31
2018-02-14T09:34:47.714Z,5.78
2018-02-14T09:37:16.220Z,6.10
2018-02-14T09:39:44.699Z,6.53
2018-02-14T09:42:13.253Z,6.46
2018-02-14T09:44:41.971Z,6.60
2018-02-14T09:47:10.431Z,6.84
2018-02-14T09:49:38.987Z,7.44
2018-02-14T09:52:07.742Z,7.76
2018-02-14T09:54:36.301Z,8.09
2018-02-14T09:57:04.818Z,8.36
2018-02-14T09:59:33.807Z,8.61
2018-02-14T10:02:02.417Z,9.24
2018-02-14T10:04:31.878Z,9.86
2018-02-14T10:07:01.180Z,9.52
2018-02-14T10:09:30.670Z,9.54
2018-02-14T10:11:59.111Z,9.72
2018-02-14T10:14:27.914Z,10.24
2018-02-14T10:16:56.337Z,10.54
2018-02-14T10:19:24.786Z,10.20
2018-02-14T10:21:53.311Z,10.12
2018-02-14T10:24:21.735Z,10.21
2018-02-14T10:26:50.183Z,10.63
2018-02-14T10:29:19.367Z,10.44
2018-02-14T10:31:47.792Z,10.67
2018-02-14T10:34:16.196Z,10.26
2018-02-14T10:36:45.023Z,9.81
2018-02-14T10:39:13.491Z,9.97
2018-02-14T10:41:41.903Z,10.03
2018-02-14T10:44:10.358Z,10.41
2018-02-14T10:46:39.093Z,9.79
2018-02-14T10:49:07.534Z,9.77
2018-02-14T10:51:36.178Z,9.49
2018-02-14T10:54:04.651Z,9.96
2018-02-14T10:56:33.344Z,10.21
2018-02-14T10:59:01.887Z,10.21
2018-02-14T11:01:36.898Z,10.15
2018-02-14T11:04:11.303Z,9.99
2018-02-14T11:06:39.896Z,9.72
2018-02-14T11:09:08.527Z,9.36
2018-02-14T11:11:37.026Z,9.57
2018-02-14T11:14:05.460Z,9.30
2018-02-14T11:16:34.243Z,9.47
2018-02-14T11:19:03.124Z,9.84
2018-02-14T11:21:33.298Z,9.61
2018-02-14T11:24:02.394Z,9.08
2018-02-14T11:26:31.458Z,8.88
2018-02-14T11:28:59.976Z,9.02
2018-02-14T11:31:28.502Z,8.60
2018-02-14T11:33:57.130Z,8.22
2018-02-14T11:36:25.569Z,7.37
2018-02-14T11:38:54.028Z,6.73
2018-02-14T11:41:22.682Z,6.38
2018-02-14T11:43:51.088Z,6.15
2018-02-14T11:46:19.507Z,5.93
2018-02-14T11:48:48.061Z,5.88
2018-02-14T11:51:16.677Z,5.76
2018-02-14T11:53:45.115Z,5.66
2018-02-14T11:56:13.664Z,5.64
2018-02-14T11:58:42.182Z,5.63
2018-02-14T12:01:10.641Z,5.76
2018-02-14T12:03:41.341Z,5.84
2018-02-14T12:06:09.898Z,5.77
2018-02-14T12:08:38.490Z,5.69
2018-02-14T12:11:06.993Z,5.65
2018-02-14T12:13:35.467Z,5.71
2018-02-14T12:16:04.090Z,5.61
2018-02-14T12:18:33.452Z,5.54
2018-02-14T12:21:02.101Z,5.32
2018-02-14T12:23:31.059Z,5.38
2018-02-14T12:26:01.614Z,5.27
2018-02-14T12:28:30.076Z,5.37
2018-02-14T12:30:58.733Z,5.29
2018-02-14T12:33:27.749Z,5.27
2018-02-14T12:35:56.165Z,5.27
2018-02-14T12:38:24.574Z,5.37
2018-02-14T12:40:53.088Z,5.35
2018-02-14T12:43:21.491Z,5.35
2018-02-14T12:45:49.945Z,5.34
2018-02-14T12:48:19.789Z,5.21
2018-02-14T12:50:48.237Z,5.16
2018-02-14T12:53:16.651Z,5.16
2018-02-14T12:55:45.281Z,5.05
2018-02-14T12:58:13.684Z,5.12
2018-02-14T13:00:42.096Z,5.11
2018-02-14T13:03:11.740Z,5.15
2018-02-14T13:05:40.171Z,5.20
2018-02-14T13:08:08.644Z,5.30
2018-02-14T13:10:38.171Z,5.32
2018-02-14T13:13:07.175Z,5.27
2018-02-14T13:15:35.927Z,5.25
2018-02-14T13:18:05.854Z,5.27
2018-02-14T13:20:34.376Z,5.28
2018-02-14T13:23:02.911Z,5.34
2018-02-14T13:25:32.211Z,5.24
2018-02-14T13:28:00.795Z,5.35
2018-02-14T13:30:29.222Z,5.37
2018-02-14T13:32:57.720Z,5.35
2018-02-14T13:35:26.137Z,5.26
2018-02-14T13:37:54.581Z,5.15
2018-02-14T13:40:23.087Z,5.16
2018-02-14T13:42:51.529Z,5.17
2018-02-14T13:45:19.934Z,5.19
2018-02-14T13:47:49.493Z,5.09
2018-02-14T13:50:18.003Z,5.11
2018-02-14T13:52:46.415Z,5.01
2018-02-14T13:55:14.924Z,5.03
2018-02-14T13:57:43.378Z,5.05
2018-02-14T14:00:11.865Z,5.02
2018-02-14T14:02:40.411Z,5.05
2018-02-14T14:05:09.028Z,5.00
2018-02-14T14:07:37.607Z,4.89
2018-02-14T14:10:06.502Z,4.96
2018-02-14T14:12:34.983Z,4.82
2018-02-14T14:15:03.667Z,4.89
2018-02-14T14:17:32.168Z,4.87
2018-02-14T14:20:00.631Z,4.82
2018-02-14T14:22:29.350Z,4.87
2018-02-14T14:24:58.098Z,4.94
2018-02-14T14:27:26.513Z,4.96
2018-02-14T14:29:55.175Z,4.96
2018-02-14T14:32:23.826Z,4.93
2018-02-14T14:34:52.244Z,4.94
2018-02-14T14:37:20.713Z,4.96
2018-02-14T14:39:49.535Z,4.93
2018-02-14T14:42:18.321Z,5.00
2018-02-14T14:44:46.751Z,4.92
2018-02-14T14:47:17.017Z,4.95
2018-02-14T14:49:45.425Z,4.90
2018-02-14T14:52:13.844Z,4.86
2018-02-14T14:54:43.732Z,4.78
2018-02-14T14:57:12.155Z,4.81
2018-02-14T14:59:40.617Z,4.74
2018-02-14T15:02:09.182Z,4.76
2018-02-14T15:04:37.667Z,4.70
2018-02-14T15:07:06.183Z,4.69
2018-02-14T15:09:35.690Z,4.72
2018-02-14T15:12:04.621Z,4.73
2018-02-14T15:14:33.198Z,4.71
2018-02-14T15:17:01.790Z,4.68
2018-02-14T15:19:30.243Z,4.69
2018-02-14T15:21:58.671Z,4.64
2018-02-14T15:24:27.127Z,4.61
2018-02-14T15:26:55.548Z,4.59
2018-02-14T15:29:23.981Z,4.59
2018-02-14T15:31:52.865Z,4.61
2018-02-14T15:34:21.296Z,4.61
2018-02-14T15:36:49.713Z,4.56
2018-02-14T15:39:18.337Z,4.52
2018-02-14T15:41:46.814Z,4.54
2018-02-14T15:44:15.786Z,4.51
2018-02-14T15:46:45.993Z,4.49
2018-02-14T15:49:14.621Z,4.49
2018-02-14T15:51:43.132Z,4.45
2018-02-14T15:54:11.928Z,4.44
2018-02-14T15:56:40.362Z,4.37
2018-02-14T15:59:08.819Z,4.38
2018-02-14T16:01:37.605Z,4.30
2018-02-14T16:04:06.047Z,4.23
2018-02-14T16:06:34.473Z,4.20
2018-02-14T16:09:03.011Z,4.17
2018-02-14T16:11:31.516Z,4.16
2018-02-14T16:14:00.117Z,4.10
2018-02-14T16:16:30.218Z,4.09
2018-02-14T16:18:58.926Z,4.05
2018-02-14T16:21:27.407Z,4.03
2018-02-14T16:23:56.398Z,4.00
2018-02-14T16:26:24.985Z,4.00
2018-02-14T16:28:53.497Z,3.94
2018-02-14T16:31:23.917Z,3.89
2018-02-14T16:33:52.763Z,3.81
2018-02-14T16:36:21.372Z,3.77
2018-02-14T16:38:51.753Z,3.75
2018-02-14T16:41:21.001Z,3.71
2018-02-14T16:43:49.649Z,3.68
2018-02-14T16:46:24.953Z,3.63
2018-02-14T16:48:54.217Z,3.58
2018-02-14T16:51:24.001Z,3.57
2018-02-14T16:53:52.877Z,3.56
2018-02-14T16:56:21.358Z,3.51
2018-02-14T16:58:49.844Z,3.43
2018-02-14T17:01:19.499Z,3.42
2018-02-14T17:03:48.241Z,3.34
2018-02-14T17:06:17.491Z,3.35
2018-02-14T17:08:46.145Z,3.29
2018-02-14T17:11:15.522Z,3.27
2018-02-14T17:13:44.029Z,3.23
2018-02-14T17:16:12.609Z,3.20
2018-02-14T17:18:41.030Z,3.20
2018-02-14T17:21:09.503Z,3.19
2018-02-14T17:23:37.996Z,3.14
2018-02-14T17:26:06.422Z,3.11
2018-02-14T17:28:34.917Z,3.08
2018-02-14T17:31:04.013Z,3.07
2018-02-14T17:33:32.428Z,3.07
2018-02-14T17:36:00.862Z,3.03
2018-02-14T17:38:29.877Z,3.00
2018-02-14T17:40:58.357Z,2.96
2018-02-14T17:43:26.950Z,2.99
2018-02-14T17:45:55.987Z,2.94
2018-02-14T17:48:24.415Z,2.93
2018-02-14T17:50:53.696Z,2.90
2018-02-14T17:53:22.299Z,2.89
2018-02-14T17:55:50.709Z,2.87
2018-02-14T17:58:19.134Z,2.83
2018-02-14T18:00:48.582Z,2.81
2018-02-14T18:03:17.032Z,2.79
2018-02-14T18:05:45.495Z,2.76
2018-02-14T18:08:14.050Z,2.75
2018-02-14T18:10:43.088Z,2.76
2018-02-14T18:13:11.674Z,2.72
2018-02-14T18:15:40.662Z,2.73
2018-02-14T18:18:09.318Z,2.71
2018-02-14T18:20:38.431Z,2.71
2018-02-14T18:23:08.287Z,2.68
2018-02-14T18:25:36.936Z,2.68
2018-02-14T18:28:05.493Z,2.66
2018-02-14T18:30:34.267Z,2.64
2018-02-14T18:33:02.769Z,2.62
2018-02-14T18:35:32.619Z,2.58
2018-02-14T18:38:01.720Z,2.57
2018-02-14T18:40:30.154Z,2.57
2018-02-14T18:42:58.562Z,2.57
2018-02-14T18:45:27.828Z,2.50
2018-02-14T18:47:56.259Z,2.45
2018-02-14T18:50:24.690Z,2.41
2018-02-14T18:52:53.174Z,2.41
2018-02-14T18:55:21.659Z,2.34
2018-02-14T18:57:50.174Z,2.34
2018-02-14T19:00:18.710Z,2.34
2018-02-14T19:02:47.198Z,2.30
2018-02-14T19:05:15.771Z,2.29
2018-02-14T19:07:44.782Z,2.25
2018-02-14T19:10:13.268Z,2.27
2018-02-14T19:12:41.722Z,2.27
2018-02-14T19:15:11.040Z,2.25
2018-02-14T19:17:39.582Z,2.27
2018-02-14T19:20:08.483Z,2.30
2018-02-14T19:22:38.074Z,2.24
2018-02-14T19:25:06.524Z,2.20
2018-02-14T19:27:35.059Z,2.20
2018-02-14T19:30:05.206Z,2.20
2018-02-14T19:32:33.753Z,2.15
2018-02-14T19:35:03.425Z,2.15
2018-02-14T19:37:32.971Z,2.15
2018-02-14T19:40:01.429Z,2.16
2018-02-14T19:42:29.892Z,2.15
2018-02-14T19:44:59.434Z,2.16
2018-02-14T19:47:28.273Z,2.16
2018-02-14T19:49:56.724Z,2.13
2018-02-14T19:52:26.340Z,2.10
2018-02-14T19:54:54.876Z,2.15
2018-02-14T19:57:24.377Z,2.11
2018-02-14T19:59:53.827Z,2.14
2018-02-14T20:02:22.384Z,2.10
2018-02-14T20:04:50.957Z,2.03
2018-02-14T20:07:19.557Z,1.98
2018-02-14T20:09:48.014Z,2.00
2018-02-14T20:12:16.567Z,1.95
2018-02-14T20:14:45.680Z,1.92
2018-02-14T20:17:14.294Z,1.90
2018-02-14T20:19:43.034Z,1.90
2018-02-14T20:22:12.135Z,1.94
2018-02-14T20:24:40.773Z,1.91
2018-02-14T20:27:09.375Z,1.78
2018-02-14T20:29:39.899Z,1.80
2018-02-14T20:32:08.651Z,1.78
2018-02-14T20:34:37.959Z,1.75
2018-02-14T20:37:07.493Z,1.73
2018-02-14T20:39:36.072Z,1.70
2018-02-14T20:42:06.574Z,1.68
2018-02-14T20:44:35.280Z,1.65
2018-02-14T20:47:04.009Z,1.66
2018-02-14T20:49:32.662Z,1.64
2018-02-14T20:52:03.711Z,1.65
2018-02-14T20:54:32.615Z,1.64
2018-02-14T20:57:01.094Z,1.61
2018-02-14T20:59:29.598Z,1.61
2018-02-14T21:01:58.133Z,1.62
2018-02-14T21:04:26.665Z,1.61
2018-02-14T21:06:55.759Z,1.59
2018-02-14T21:09:24.235Z,1.63
2018-02-14T21:11:52.702Z,1.64
2018-02-14T21:14:22.018Z,1.62
2018-02-14T21:16:50.655Z,1.61
2018-02-14T21:19:19.118Z,1.59
2018-02-14T21:21:47.613Z,1.70
2018-02-14T21:24:16.067Z,1.67
2018-02-14T21:26:45.339Z,1.66
2018-02-14T21:29:14.336Z,1.65
2018-02-14T21:31:42.817Z,1.65
2018-02-14T21:34:11.637Z,1.68
2018-02-14T21:36:40.732Z,1.69
2018-02-14T21:39:09.468Z,1.70
2018-02-14T21:41:38.175Z,1.71
2018-02-14T21:44:07.165Z,1.70
2018-02-14T21:46:35.645Z,1.71
2018-02-14T21:49:04.231Z,1.67
2018-02-14T21:51:34.403Z,1.62
2018-02-14T21:54:02.933Z,1.68
2018-02-14T21:56:31.402Z,1.72
2018-02-14T21:59:00.103Z,1.68
2018-02-14T22:01:28.610Z,1.63
2018-02-14T22:03:57.058Z,1.62
2018-02-14T22:06:25.566Z,1.61
2018-02-14T22:08:54.017Z,1.59
2018-02-14T22:11:22.481Z,1.58
2018-02-14T22:13:50.985Z,1.53
2018-02-14T22:16:19.462Z,1.58
2018-02-14T22:18:47.915Z,1.60
2018-02-14T22:21:17.025Z,1.55
2018-02-14T22:23:45.467Z,1.58
2018-02-14T22:26:13.962Z,1.56
2018-02-14T22:28:44.526Z,1.51
2018-02-14T22:31:12.985Z,1.48
2018-02-14T22:33:41.600Z,1.45
2018-02-14T22:36:10.637Z,1.45
2018-02-14T22:38:39.182Z,1.42
2018-02-14T22:41:07.692Z,1.42
2018-02-14T22:43:37.437Z,1.42
2018-02-14T22:46:05.904Z,1.39
2018-02-14T22:48:34.455Z,1.34
2018-02-14T22:51:03.511Z,1.31
2018-02-14T22:53:31.931Z,1.33
2018-02-14T22:56:00.401Z,1.35
2018-02-14T22:58:29.088Z,1.31
2018-02-14T23:00:57.556Z,1.32
2018-02-14T23:03:26.004Z,1.34
2018-02-14T23:05:54.617Z,1.31
2018-02-14T23:08:23.083Z,1.31
2018-02-14T23:10:51.518Z,1.27
2018-02-14T23:13:20.361Z,1.27
2018-02-14T23:15:48.965Z,1.24
2018-02-14T23:18:17.429Z,1.25
2018-02-14T23:20:45.972Z,1.27
2018-02-14T23:23:14.438Z,1.29
2018-02-14T23:25:42.918Z,1.31
2018-02-14T23:28:11.701Z,1.31
2018-02-14T23:30:40.321Z,1.24
2018-02-14T23:33:08.925Z,1.23
2018-02-14T23:35:37.470Z,1.23
2018-02-14T23:38:06.188Z,1.28
2018-02-14T23:40:34.832Z,1.29
2018-02-14T23:43:04.158Z,1.27
2018-02-14T23:45:32.687Z,1.29
2018-02-14T23:48:01.122Z,1.27
2018-02-14T23:50:29.680Z,1.28
2018-02-14T23:52:58.123Z,1.32
2018-02-14T23:55:26.736Z,1.34
2018-02-14T23:57:55.261Z,1.39
